createdAt,value
2018-07-23T00:00:16.636Z,87.20
2018-07-23T00:02:43.873Z,87.40
2018-07-23T00:05:10.978Z,88.22
2018-07-23T00:07:38.132Z,88.32
2018-07-23T00:10:05.322Z,88.08
2018-07-23T00:12:32.500Z,88.06
2018-07-23T00:14:59.657Z,88.78
2018-07-23T00:17:26.775Z,88.46
2018-07-23T00:19:53.920Z,87.12
2018-07-23T00:22:21.229Z,87.93
2018-07-23T00:24:48.351Z,88.31
2018-07-23T00:27:15.477Z,89.07
2018-07-23T00:29:42.647Z,88.08
2018-07-23T00:32:09.761Z,88.89
2018-07-23T00:34:36.884Z,89.09
2018-07-23T00:37:04.100Z,88.08
2018-07-23T00:39:31.239Z,88.89
2018-07-23T00:41:58.393Z,89.08
2018-07-23T00:44:25.604Z,88.58
2018-07-23T00:46:52.767Z,89.88
2018-07-23T00:49:19.912Z,88.60
2018-07-23T00:51:47.179Z,90.06
2018-07-23T00:54:14.293Z,89.93
2018-07-23T00:56:41.448Z,89.39
2018-07-23T00:59:08.634Z,89.92
2018-07-23T01:01:35.751Z,90.58
2018-07-23T01:04:02.969Z,91.22
2018-07-23T01:06:30.116Z,91.19
2018-07-23T01:08:57.236Z,91.53
2018-07-23T01:11:24.348Z,91.65
2018-07-23T01:13:51.563Z,91.74
2018-07-23T01:16:18.703Z,91.21
2018-07-23T01:18:45.823Z,91.47
2018-07-23T01:21:13.057Z,91.08
2018-07-23T01:23:40.249Z,91.21
2018-07-23T01:26:07.364Z,91.50
2018-07-23T01:28:34.519Z,91.89
2018-07-23T01:31:01.649Z,92.17
2018-07-23T01:33:28.763Z,92.52
2018-07-23T01:35:55.909Z,92.74
2018-07-23T01:38:23.027Z,92.81
2018-07-23T01:40:50.140Z,92.97
2018-07-23T01:43:17.372Z,93.58
2018-07-23T01:45:44.513Z,93.51
2018-07-23T01:48:11.648Z,93.56
2018-07-23T01:50:38.809Z,93.84
2018-07-23T01:53:05.940Z,94.01
2018-07-23T01:55:33.120Z,93.96
2018-07-23T01:58:00.366Z,93.42
2018-07-23T02:00:27.493Z,93.59
2018-07-23T02:02:54.591Z,93.96
2018-07-23T02:05:21.833Z,93.75
2018-07-23T02:07:48.952Z,93.87
2018-07-23T02:10:16.120Z,94.22
2018-07-23T02:12:43.321Z,93.16
2018-07-23T02:15:10.451Z,93.73
2018-07-23T02:17:37.572Z,93.74
2018-07-23T02:20:05.005Z,93.62
2018-07-23T02:22:32.141Z,93.91
2018-07-23T02:25:00.249Z,94.36
2018-07-23T02:27:27.419Z,94.65
2018-07-23T02:29:54.540Z,94.70
2018-07-23T02:32:21.638Z,94.43
2018-07-23T02:34:48.760Z,94.93
2018-07-23T02:37:15.961Z,95.05
2018-07-23T02:39:43.211Z,94.96
2018-07-23T02:42:10.380Z,95.10
2018-07-23T02:44:37.718Z,94.84
2018-07-23T02:47:05.273Z,95.38
2018-07-23T02:49:32.451Z,94.83
2018-07-23T02:51:59.576Z,95.52
2018-07-23T02:54:26.713Z,95.74
2018-07-23T02:56:53.980Z,95.66
2018-07-23T02:59:21.083Z,95.79
2018-07-23T03:01:48.196Z,95.68
2018-07-23T03:04:15.440Z,94.79
2018-07-23T03:06:42.590Z,94.97
2018-07-23T03:09:09.707Z,95.28
2018-07-23T03:11:36.864Z,95.37
2018-07-23T03:14:04.014Z,95.26
2018-07-23T03:16:31.200Z,95.00
2018-07-23T03:18:58.347Z,94.17
2018-07-23T03:21:25.465Z,94.48
2018-07-23T03:23:52.564Z,94.25
2018-07-23T03:26:19.710Z,93.57
2018-07-23T03:28:46.852Z,93.44
2018-07-23T03:31:13.970Z,92.80
2018-07-23T03:33:41.232Z,92.16
2018-07-23T03:36:08.345Z,92.66
2018-07-23T03:38:35.532Z,92.00
2018-07-23T03:41:02.792Z,92.47
2018-07-23T03:43:29.940Z,91.98
2018-07-23T03:45:57.084Z,91.75
2018-07-23T03:48:24.240Z,91.75
2018-07-23T03:50:51.366Z,91.09
2018-07-23T03:53:18.541Z,90.91
2018-07-23T03:55:45.769Z,90.71
2018-07-23T03:58:12.924Z,89.80
2018-07-23T04:00:40.058Z,90.77
2018-07-23T04:03:11.840Z,90.74
2018-07-23T04:05:38.984Z,89.95
2018-07-23T04:08:06.180Z,89.57
2018-07-23T04:10:33.344Z,89.68
2018-07-23T04:13:00.459Z,89.17
2018-07-23T04:15:27.579Z,90.03
2018-07-23T04:18:01.283Z,90.44
2018-07-23T04:20:28.641Z,90.52
2018-07-23T04:22:55.735Z,89.57
2018-07-23T04:25:22.958Z,89.37
2018-07-23T04:27:50.111Z,89.22
2018-07-23T04:30:17.288Z,89.08
2018-07-23T04:32:44.528Z,88.46
2018-07-23T04:35:11.670Z,89.57
2018-07-23T04:37:38.814Z,89.20
2018-07-23T04:40:06.179Z,89.46
2018-07-23T04:42:33.316Z,90.05
2018-07-23T04:45:00.442Z,88.29
2018-07-23T04:47:27.621Z,88.60
2018-07-23T04:49:54.745Z,88.43
2018-07-23T04:52:21.920Z,88.07
2018-07-23T04:54:49.072Z,87.45
2018-07-23T04:57:16.213Z,87.18
2018-07-23T04:59:43.352Z,86.84
2018-07-23T05:02:10.508Z,87.38
2018-07-23T05:04:37.636Z,87.83
2018-07-23T05:07:04.808Z,86.16
2018-07-23T05:09:32.096Z,86.45
2018-07-23T05:11:59.236Z,85.37
2018-07-23T05:14:26.378Z,85.88
2018-07-23T05:16:53.636Z,84.72
2018-07-23T05:19:20.775Z,84.67
2018-07-23T05:21:47.895Z,84.22
2018-07-23T05:24:15.055Z,83.53
2018-07-23T05:26:42.195Z,82.63
2018-07-23T05:29:09.318Z,83.77
2018-07-23T05:31:36.532Z,82.11
2018-07-23T05:34:03.689Z,82.97
2018-07-23T05:36:30.856Z,81.54
2018-07-23T05:38:58.004Z,81.93
2018-07-23T05:41:25.171Z,81.82
2018-07-23T05:43:52.301Z,80.79
2018-07-23T05:46:20.891Z,80.45
2018-07-23T05:48:48.044Z,80.04
2018-07-23T05:51:15.256Z,80.17
2018-07-23T05:53:42.460Z,79.49
2018-07-23T05:56:09.583Z,79.26
2018-07-23T05:58:36.745Z,77.99
2018-07-23T06:01:03.975Z,77.35
2018-07-23T06:03:31.160Z,76.82
2018-07-23T06:05:58.278Z,77.04
2018-07-23T06:08:25.517Z,77.80
2018-07-23T06:10:52.715Z,75.25
2018-07-23T06:13:19.854Z,75.67
2018-07-23T06:15:47.464Z,75.06
2018-07-23T06:18:14.660Z,75.08
2018-07-23T06:20:41.794Z,75.35
2018-07-23T06:23:08.997Z,75.19
2018-07-23T06:25:36.247Z,74.88
2018-07-23T06:28:03.419Z,74.19
2018-07-23T06:30:30.681Z,74.15
2018-07-23T06:32:57.907Z,74.07
2018-07-23T06:35:25.028Z,72.35
2018-07-23T06:37:52.212Z,72.74
2018-07-23T06:40:19.443Z,71.84
2018-07-23T06:42:46.581Z,72.17
2018-07-23T06:45:14.123Z,71.95
2018-07-23T06:47:41.260Z,71.73
2018-07-23T06:50:08.403Z,71.91
2018-07-23T06:52:35.687Z,69.56
2018-07-23T06:55:02.883Z,69.40
2018-07-23T06:57:30.098Z,69.12
2018-07-23T06:59:57.227Z,68.75
2018-07-23T07:02:24.384Z,68.12
2018-07-23T07:04:51.518Z,67.27
2018-07-23T07:07:18.680Z,67.94
2018-07-23T07:09:45.891Z,66.89
2018-07-23T07:12:13.056Z,66.56
2018-07-23T07:14:40.231Z,65.28
2018-07-23T07:17:07.375Z,65.15
2018-07-23T07:19:34.514Z,66.58
2018-07-23T07:22:01.779Z,66.92
2018-07-23T07:24:28.976Z,65.08
2018-07-23T07:26:56.150Z,62.31
2018-07-23T07:29:23.472Z,63.29
2018-07-23T07:31:50.593Z,61.01
2018-07-23T07:34:17.699Z,62.07
2018-07-23T07:36:44.869Z,61.99
2018-07-23T07:39:12.782Z,60.67
2018-07-23T07:41:40.367Z,59.79
2018-07-23T07:44:08.199Z,57.38
2018-07-23T07:46:35.525Z,57.61
2018-07-23T07:49:02.756Z,56.96
2018-07-23T07:51:30.044Z,56.49
2018-07-23T07:53:57.177Z,57.72
2018-07-23T07:56:24.340Z,58.23
2018-07-23T07:58:51.655Z,56.81
2018-07-23T08:01:18.864Z,56.31
2018-07-23T08:03:45.983Z,56.47
2018-07-23T08:06:13.144Z,55.99
2018-07-23T08:08:40.292Z,56.67
2018-07-23T08:11:07.453Z,55.90
2018-07-23T08:13:35.071Z,54.67
2018-07-23T08:16:02.195Z,55.39
2018-07-23T08:18:29.363Z,54.88
2018-07-23T08:20:56.549Z,53.94
2018-07-23T08:23:23.664Z,53.99
2018-07-23T08:25:50.781Z,55.38
2018-07-23T08:28:18.043Z,55.64
2018-07-23T08:30:45.161Z,52.46
2018-07-23T08:33:12.297Z,51.95
2018-07-23T08:35:39.471Z,52.29
2018-07-23T08:38:06.615Z,52.17
2018-07-23T08:40:33.764Z,52.20
2018-07-23T08:43:00.973Z,51.17
2018-07-23T08:45:28.085Z,49.25
2018-07-23T08:47:55.214Z,49.09
2018-07-23T08:50:22.368Z,48.23
2018-07-23T08:52:49.503Z,48.53
2018-07-23T08:55:16.641Z,47.32
2018-07-23T08:57:43.816Z,47.82
2018-07-23T09:00:10.967Z,47.53
2018-07-23T09:02:38.110Z,48.01
2018-07-23T09:05:05.318Z,47.53
2018-07-23T09:07:32.534Z,48.03
2018-07-23T09:09:59.648Z,47.67
2018-07-23T09:12:26.847Z,46.90
2018-07-23T09:14:54.032Z,47.63
2018-07-23T09:17:21.215Z,47.74
2018-07-23T09:19:48.381Z,46.35
2018-07-23T09:22:15.525Z,45.23
2018-07-23T09:24:42.694Z,45.64
2018-07-23T09:27:09.964Z,46.25
2018-07-23T09:29:37.118Z,44.78
2018-07-23T09:32:04.301Z,41.91
2018-07-23T09:34:31.471Z,42.81
2018-07-23T09:36:58.619Z,42.53
2018-07-23T09:39:25.741Z,43.95
2018-07-23T09:41:52.904Z,44.07
2018-07-23T09:44:20.084Z,42.51
2018-07-23T09:46:47.200Z,40.91
2018-07-23T09:49:14.376Z,40.96
2018-07-23T09:51:41.514Z,42.27
2018-07-23T09:54:08.682Z,39.80
2018-07-23T09:56:35.896Z,41.16
2018-07-23T09:59:03.058Z,38.70
2018-07-23T10:01:30.194Z,39.00
2018-07-23T10:03:57.465Z,38.74
2018-07-23T10:06:24.600Z,41.43
2018-07-23T10:08:51.909Z,38.16
2018-07-23T10:11:19.268Z,39.53
2018-07-23T10:13:46.388Z,39.79
2018-07-23T10:16:13.558Z,38.12
2018-07-23T10:18:40.723Z,37.18
2018-07-23T10:21:07.906Z,39.26
2018-07-23T10:23:35.071Z,39.63
2018-07-23T10:26:02.248Z,38.37
2018-07-23T10:28:29.439Z,37.55
2018-07-23T10:30:56.579Z,37.54
2018-07-23T10:33:23.836Z,36.75
2018-07-23T10:35:50.959Z,39.32
2018-07-23T10:38:18.111Z,37.69
2018-07-23T10:40:45.489Z,38.72
2018-07-23T10:43:12.602Z,36.15
2018-07-23T10:45:39.774Z,36.54
2018-07-23T10:48:07.113Z,36.19
2018-07-23T10:50:34.246Z,38.31
2018-07-23T10:53:01.373Z,35.52
2018-07-23T10:55:28.568Z,38.00
2018-07-23T10:57:55.710Z,33.75
2018-07-23T11:00:22.853Z,34.48
2018-07-23T11:02:50.041Z,35.99
2018-07-23T11:05:17.165Z,35.19
2018-07-23T11:07:44.304Z,33.45
2018-07-23T11:10:11.518Z,35.13
2018-07-23T11:12:38.710Z,32.91
2018-07-23T11:15:06.637Z,31.30
2018-07-23T11:17:34.072Z,33.09
2018-07-23T11:20:01.228Z,33.89
2018-07-23T11:22:28.378Z,32.24
2018-07-23T11:24:55.647Z,31.15
2018-07-23T11:27:22.709Z,34.60
2018-07-23T11:29:49.874Z,31.29
2018-07-23T11:32:17.153Z,30.26
2018-07-23T11:34:44.279Z,30.49
2018-07-23T11:37:11.415Z,29.04
2018-07-23T11:39:38.600Z,28.54
2018-07-23T11:42:05.777Z,29.60
2018-07-23T11:44:32.917Z,28.71
2018-07-23T11:47:00.140Z,28.55
2018-07-23T11:49:27.276Z,28.35
2018-07-23T11:51:54.429Z,27.92
2018-07-23T11:54:21.605Z,26.48
2018-07-23T11:56:48.794Z,26.87
2018-07-23T11:59:16.053Z,27.29
2018-07-23T12:01:43.287Z,24.54
2018-07-23T12:04:10.732Z,26.09
2018-07-23T12:06:37.552Z,26.82
2018-07-23T12:09:07.266Z,25.44
2018-07-23T12:11:34.452Z,27.06
2018-07-23T12:14:01.602Z,27.68
2018-07-23T12:16:28.852Z,29.06
2018-07-23T12:18:56.056Z,29.70
2018-07-23T12:21:23.178Z,34.44
2018-07-23T12:23:50.455Z,31.26
2018-07-23T12:26:17.600Z,31.71
2018-07-23T12:28:44.738Z,31.70
2018-07-23T12:31:11.906Z,32.11
2018-07-23T12:33:39.082Z,34.56
2018-07-23T12:36:07.495Z,33.00
2018-07-23T12:38:34.714Z,33.71
2018-07-23T12:41:01.886Z,33.93
2018-07-23T12:43:29.009Z,32.67
2018-07-23T12:45:56.275Z,33.98
2018-07-23T12:48:23.439Z,34.18
2018-07-23T12:50:50.583Z,34.91
2018-07-23T12:53:17.856Z,34.59
2018-07-23T12:55:44.976Z,35.54
2018-07-23T12:58:12.112Z,36.32
2018-07-23T13:00:39.336Z,35.91
2018-07-23T13:03:06.460Z,35.10
2018-07-23T13:05:33.645Z,35.10
2018-07-23T13:08:02.495Z,35.54
2018-07-23T13:10:29.620Z,37.88
2018-07-23T13:12:56.777Z,33.67
2018-07-23T13:15:23.964Z,34.73
2018-07-23T13:17:51.072Z,34.35
2018-07-23T13:20:18.314Z,35.80
2018-07-23T13:22:45.665Z,34.86
2018-07-23T13:25:12.830Z,34.15
2018-07-23T13:27:39.924Z,34.29
2018-07-23T13:30:07.187Z,34.28
2018-07-23T13:32:34.337Z,34.20
2018-07-23T13:35:01.491Z,36.13
2018-07-23T13:37:28.748Z,33.84
2018-07-23T13:39:55.863Z,34.51
2018-07-23T13:42:22.997Z,35.48
2018-07-23T13:44:50.171Z,35.31
2018-07-23T13:47:17.319Z,35.60
2018-07-23T13:49:44.435Z,35.09
2018-07-23T13:52:11.692Z,34.49
2018-07-23T13:54:38.844Z,35.62
2018-07-23T13:57:06.024Z,34.61
2018-07-23T13:59:33.186Z,35.55
2018-07-23T14:02:00.360Z,35.54
2018-07-23T14:04:27.499Z,35.22
2018-07-23T14:06:54.664Z,35.67
2018-07-23T14:09:21.780Z,33.49
2018-07-23T14:11:48.916Z,34.03
2018-07-23T14:14:16.080Z,34.94
2018-07-23T14:16:43.200Z,33.20
2018-07-23T14:19:10.380Z,35.64
2018-07-23T14:21:37.643Z,34.91
2018-07-23T14:24:04.908Z,33.92
2018-07-23T14:26:32.064Z,34.93
2018-07-23T14:28:59.280Z,33.59
2018-07-23T14:31:26.407Z,35.65
2018-07-23T14:33:53.519Z,34.84
2018-07-23T14:36:20.826Z,36.05
2018-07-23T14:38:47.977Z,33.85
2018-07-23T14:41:15.141Z,34.01
2018-07-23T14:43:42.458Z,33.61
2018-07-23T14:46:09.598Z,33.67
2018-07-23T14:48:36.889Z,33.42
2018-07-23T14:51:04.150Z,33.92
2018-07-23T14:53:31.275Z,33.34
2018-07-23T14:55:58.379Z,30.55
2018-07-23T14:58:25.552Z,31.42
2018-07-23T15:00:52.705Z,31.11
2018-07-23T15:03:19.831Z,31.91
2018-07-23T15:05:46.976Z,30.85
2018-07-23T15:08:14.388Z,30.18
2018-07-23T15:10:41.531Z,31.73
2018-07-23T15:13:08.737Z,30.86
2018-07-23T15:15:35.895Z,28.42
2018-07-23T15:18:03.065Z,25.42
2018-07-23T15:20:30.247Z,24.70
2018-07-23T15:22:57.488Z,22.98
2018-07-23T15:25:24.644Z,20.90
2018-07-23T15:27:51.826Z,19.31
2018-07-23T15:30:18.952Z,19.08
2018-07-23T15:32:46.099Z,18.54
2018-07-23T15:35:13.301Z,16.91
2018-07-23T15:37:40.416Z,16.63
2018-07-23T15:40:07.604Z,16.81
2018-07-23T15:42:34.777Z,16.38
2018-07-23T15:45:02.062Z,15.96
2018-07-23T15:47:29.108Z,15.72
2018-07-23T15:49:56.266Z,15.98
2018-07-23T15:52:23.395Z,16.64
2018-07-23T15:54:50.531Z,16.79
2018-07-23T15:57:17.795Z,16.70
2018-07-23T15:59:44.939Z,17.09
2018-07-23T16:02:12.091Z,17.24
2018-07-23T16:04:39.270Z,16.97
2018-07-23T16:07:06.401Z,16.98
2018-07-23T16:09:33.631Z,17.56
2018-07-23T16:12:00.826Z,18.59
2018-07-23T16:14:27.951Z,20.48
2018-07-23T16:16:55.067Z,21.58
2018-07-23T16:19:22.220Z,22.13
2018-07-23T16:21:49.367Z,22.92
2018-07-23T16:24:16.581Z,22.08
2018-07-23T16:26:43.777Z,22.59
2018-07-23T16:29:10.887Z,22.72
2018-07-23T16:31:38.051Z,22.83
2018-07-23T16:34:05.224Z,22.74
2018-07-23T16:36:32.364Z,24.45
2018-07-23T16:38:59.498Z,23.94
2018-07-23T16:41:26.680Z,22.60
2018-07-23T16:43:53.827Z,22.77
2018-07-23T16:46:20.965Z,22.24
2018-07-23T16:48:48.143Z,24.02
2018-07-23T16:51:15.264Z,23.74
2018-07-23T16:53:42.445Z,24.70
2018-07-23T16:56:09.645Z,26.28
2018-07-23T16:58:36.772Z,26.50
2018-07-23T17:01:03.941Z,28.81
2018-07-23T17:03:31.097Z,29.59
2018-07-23T17:05:58.283Z,30.88
2018-07-23T17:08:25.391Z,32.06
2018-07-23T17:10:52.570Z,33.78
2018-07-23T17:13:19.700Z,34.38
2018-07-23T17:15:46.867Z,34.35
2018-07-23T17:18:14.095Z,35.07
2018-07-23T17:20:41.207Z,35.70
2018-07-23T17:23:08.331Z,36.76
2018-07-23T17:25:36.091Z,36.69
2018-07-23T17:28:03.250Z,36.83
2018-07-23T17:30:30.376Z,37.59
2018-07-23T17:32:57.519Z,38.66
2018-07-23T17:35:24.666Z,38.22
2018-07-23T17:37:51.807Z,38.93
2018-07-23T17:40:18.992Z,38.39
2018-07-23T17:42:46.106Z,38.65
2018-07-23T17:45:13.264Z,39.60
2018-07-23T17:47:40.403Z,39.88
2018-07-23T17:50:07.620Z,39.99
2018-07-23T17:52:34.760Z,40.61
2018-07-23T17:55:01.975Z,41.66
2018-07-23T17:57:29.105Z,41.12
2018-07-23T17:59:56.249Z,41.65
2018-07-23T18:02:23.471Z,40.27
2018-07-23T18:04:50.590Z,42.15
2018-07-23T18:07:17.801Z,42.18
2018-07-23T18:09:44.949Z,41.94
2018-07-23T18:12:12.106Z,43.18
2018-07-23T18:14:39.219Z,43.50
2018-07-23T18:17:06.567Z,43.51
2018-07-23T18:19:33.773Z,44.21
2018-07-23T18:22:00.889Z,46.97
2018-07-23T18:24:28.600Z,44.94
2018-07-23T18:26:55.785Z,45.03
2018-07-23T18:29:22.923Z,44.93
2018-07-23T18:31:50.090Z,44.47
2018-07-23T18:34:17.220Z,44.04
2018-07-23T18:36:44.361Z,46.89
2018-07-23T18:39:12.361Z,46.15
2018-07-23T18:41:39.984Z,45.36
2018-07-23T18:44:07.313Z,47.08
2018-07-23T18:46:34.484Z,46.59
2018-07-23T18:49:23.294Z,46.06
2018-07-23T18:51:51.624Z,47.99
2018-07-23T18:54:20.475Z,47.50
2018-07-23T18:56:49.780Z,47.34
2018-07-23T18:59:17.030Z,51.75
2018-07-23T19:01:44.236Z,53.47
2018-07-23T19:04:11.348Z,51.45
2018-07-23T19:06:38.567Z,54.94
2018-07-23T19:09:09.191Z,56.87
2018-07-23T19:11:36.380Z,57.52
2018-07-23T19:14:03.764Z,57.11
2018-07-23T19:16:30.903Z,56.01
2018-07-23T19:18:59.043Z,57.28
2018-07-23T19:21:26.219Z,60.59
2018-07-23T19:23:53.321Z,61.50
2018-07-23T19:26:20.467Z,61.50
2018-07-23T19:28:47.651Z,62.39
2018-07-23T19:31:14.787Z,63.68
2018-07-23T19:33:41.934Z,64.32
2018-07-23T19:36:09.147Z,65.18
2018-07-23T19:38:36.276Z,65.52
2018-07-23T19:41:03.477Z,66.00
2018-07-23T19:43:30.839Z,66.60
2018-07-23T19:45:58.068Z,66.93
2018-07-23T19:48:25.232Z,67.25
2018-07-23T19:50:52.460Z,68.04
2018-07-23T19:53:19.621Z,67.27
2018-07-23T19:55:46.831Z,66.95
2018-07-23T19:58:14.102Z,68.04
2018-07-23T20:00:41.231Z,68.97
2018-07-23T20:03:08.390Z,69.93
2018-07-23T20:05:36.572Z,69.84
2018-07-23T20:08:03.781Z,70.72
2018-07-23T20:10:30.882Z,70.96
2018-07-23T20:12:58.265Z,70.26
2018-07-23T20:15:25.321Z,71.73
2018-07-23T20:17:52.439Z,71.37
2018-07-23T20:20:19.647Z,71.62
2018-07-23T20:22:46.744Z,72.03
2018-07-23T20:25:13.865Z,72.02
2018-07-23T20:27:41.087Z,71.37
2018-07-23T20:30:08.329Z,72.93
2018-07-23T20:32:35.460Z,72.62
2018-07-23T20:35:02.801Z,72.45
2018-07-23T20:37:29.943Z,73.23
2018-07-23T20:39:57.080Z,73.19
2018-07-23T20:42:24.237Z,73.78
2018-07-23T20:44:51.356Z,75.14
2018-07-23T20:47:18.492Z,75.07
2018-07-23T20:49:45.720Z,75.62
2018-07-23T20:52:12.864Z,76.14
2018-07-23T20:54:40.004Z,75.82
2018-07-23T20:57:07.227Z,75.50
2018-07-23T20:59:34.343Z,75.71
2018-07-23T21:02:01.514Z,76.32
2018-07-23T21:04:28.742Z,75.85
2018-07-23T21:06:55.861Z,77.06
2018-07-23T21:09:22.984Z,76.05
2018-07-23T21:11:50.208Z,76.00
2018-07-23T21:14:17.355Z,77.07
2018-07-23T21:16:45.199Z,77.00
2018-07-23T21:19:12.363Z,77.16
2018-07-23T21:24:12.453Z,77.56
2018-07-23T21:26:39.596Z,78.07
2018-07-23T21:29:06.745Z,78.14
2018-07-23T21:31:34.053Z,78.45
2018-07-23T21:34:01.177Z,79.11
2018-07-23T21:36:28.285Z,79.50
2018-07-23T21:38:55.522Z,79.89
2018-07-23T21:41:22.653Z,79.50
2018-07-23T21:43:49.869Z,78.08
2018-07-23T21:46:17.066Z,78.15
2018-07-23T21:48:44.180Z,78.24
2018-07-23T21:51:11.291Z,78.65
2018-07-23T21:53:38.459Z,78.70
2018-07-23T21:56:05.692Z,79.22
2018-07-23T21:58:32.807Z,80.88
2018-07-23T22:00:59.994Z,79.12
2018-07-23T22:03:27.143Z,79.26
2018-07-23T22:05:54.304Z,79.32
2018-07-23T22:08:21.577Z,79.63
2018-07-23T22:10:48.718Z,80.20
2018-07-23T22:13:15.851Z,80.32
2018-07-23T22:15:43.011Z,80.29
2018-07-23T22:18:10.155Z,80.66
2018-07-23T22:20:37.259Z,79.35
2018-07-23T22:23:04.688Z,79.21
2018-07-23T22:25:31.900Z,79.18
2018-07-23T22:27:59.011Z,80.02
2018-07-23T22:30:26.207Z,80.94
2018-07-23T22:32:53.371Z,81.14
2018-07-23T22:35:20.487Z,82.19
2018-07-23T22:37:47.728Z,82.02
2018-07-23T22:40:14.865Z,82.39
2018-07-23T22:42:41.997Z,82.07
2018-07-23T22:45:09.164Z,80.34
2018-07-23T22:47:36.261Z,79.86
2018-07-23T22:50:03.686Z,79.58
2018-07-23T22:52:30.878Z,80.82
2018-07-23T22:54:58.095Z,81.76
2018-07-23T22:57:25.218Z,82.90
2018-07-23T22:59:52.440Z,82.76
2018-07-23T23:02:19.571Z,80.98
2018-07-23T23:04:46.674Z,81.85
2018-07-23T23:07:13.836Z,80.02
2018-07-23T23:09:40.967Z,81.02
2018-07-23T23:12:08.156Z,80.34
2018-07-23T23:14:35.268Z,80.44
2018-07-23T23:17:02.395Z,80.59
2018-07-23T23:19:30.048Z,79.42
2018-07-23T23:21:57.191Z,80.45
2018-07-23T23:24:24.297Z,83.02
2018-07-23T23:26:51.958Z,83.40
2018-07-23T23:29:19.103Z,82.56
2018-07-23T23:31:46.234Z,84.50
2018-07-23T23:34:13.527Z,84.46
2018-07-23T23:36:40.620Z,84.50
2018-07-23T23:39:09.274Z,84.90
2018-07-23T23:41:36.843Z,85.73
2018-07-23T23:44:03.947Z,86.03
2018-07-23T23:46:31.165Z,86.91
2018-07-23T23:48:58.310Z,86.26
2018-07-23T23:51:25.434Z,86.75
2018-07-23T23:53:52.535Z,87.58
2018-07-23T23:56:19.680Z,87.89
2018-07-23T23:58:46.920Z,87.16
